createdAt,value
2022-11-11T13:53:25.747Z,13.09
2022-11-11T13:55:54.143Z,13.09
2022-11-11T13:58:25.259Z,13.12
2022-11-11T14:01:00.379Z,13.08
2022-11-11T14:03:27.137Z,13.10
2022-11-11T14:06:15.712Z,13.10
2022-11-11T14:08:50.297Z,13.06
2022-11-11T14:11:26.097Z,13.09
2022-11-11T14:13:56.422Z,13.03
2022-11-11T14:16:34.798Z,13.09
2022-11-11T14:19:28.781Z,13.11
2022-11-11T14:22:00.333Z,13.13
2022-11-11T14:24:37.406Z,13.16
2022-11-11T14:27:16.290Z,13.16
2022-11-11T14:29:53.938Z,13.11
2022-11-11T14:32:49.656Z,13.15
2022-11-11T14:35:22.906Z,13.17
2022-11-11T14:38:03.422Z,13.08
2022-11-11T14:40:32.279Z,13.10
2022-11-11T14:43:00.492Z,13.10
2022-11-11T14:45:30.121Z,13.12
2022-11-11T14:47:57.582Z,13.14
2022-11-11T14:50:33.076Z,13.16
2022-11-11T14:53:01.833Z,13.10
2022-11-11T14:55:34.240Z,13.13
2022-11-11T14:58:18.394Z,13.14
2022-11-11T15:00:49.719Z,13.13
2022-11-11T15:03:37.079Z,13.09
2022-11-11T15:06:09.413Z,13.06
2022-11-11T15:09:15.641Z,13.08
2022-11-11T15:11:51.402Z,13.04
2022-11-11T15:14:44.047Z,13.04
2022-11-11T15:17:42.355Z,13.01
2022-11-11T15:20:24.057Z,12.94
2022-11-11T15:22:53.443Z,12.96
2022-11-11T15:25:31.162Z,12.90
2022-11-11T15:27:57.459Z,12.78
2022-11-11T15:30:38.874Z,12.73
2022-11-11T15:33:21.078Z,12.66
2022-11-11T15:36:16.737Z,12.58
2022-11-11T15:38:43.371Z,12.45
2022-11-11T15:41:24.266Z,12.40
2022-11-11T15:43:51.936Z,12.30
2022-11-11T15:46:28.594Z,12.24
2022-11-11T15:48:55.207Z,12.10
2022-11-11T15:51:21.524Z,12.04
2022-11-11T15:53:48.442Z,11.98
2022-11-11T15:56:33.172Z,11.93
2022-11-11T15:59:22.114Z,11.84
2022-11-11T16:01:48.500Z,11.70
2022-11-11T16:04:53.399Z,11.65
2022-11-11T16:07:06.066Z,11.52
2022-11-11T16:09:32.842Z,11.41
2022-11-11T16:11:59.468Z,11.38
2022-11-11T16:14:36.676Z,11.34
2022-11-11T16:17:03.472Z,11.23
2022-11-11T16:19:41.421Z,11.17
2022-11-11T16:22:11.086Z,11.06
2022-11-11T16:24:40.909Z,11.03
2022-11-11T16:27:08.120Z,11.00
2022-11-11T16:29:38.846Z,10.94
2022-11-11T16:32:23.620Z,10.89
2022-11-11T16:34:52.869Z,10.85
2022-11-11T16:37:20.004Z,10.77
2022-11-11T16:39:47.022Z,10.72
2022-11-11T16:42:21.241Z,10.67
2022-11-11T16:44:54.604Z,10.59
2022-11-11T16:47:42.743Z,10.47
2022-11-11T16:50:15.306Z,10.37
2022-11-11T16:52:56.286Z,10.33
2022-11-11T16:55:45.091Z,10.28
2022-11-11T16:58:19.253Z,10.21
2022-11-11T17:00:46.199Z,10.14
2022-11-11T17:03:25.653Z,10.09
2022-11-11T17:06:10.467Z,10.01
2022-11-11T17:08:42.007Z,9.94
2022-11-11T17:11:10.718Z,9.88
2022-11-11T17:13:42.294Z,9.88
2022-11-11T17:16:09.940Z,9.85
2022-11-11T17:18:39.318Z,9.86
2022-11-11T17:21:06.296Z,9.83
2022-11-11T17:23:35.370Z,9.79
2022-11-11T17:26:06.089Z,9.76
2022-11-11T17:28:34.937Z,9.76
2022-11-11T17:31:09.215Z,9.74
2022-11-11T17:33:35.676Z,9.67
2022-11-11T17:36:02.311Z,9.66
2022-11-11T17:38:29.006Z,9.59
2022-11-11T17:40:55.379Z,9.54
2022-11-11T17:43:21.778Z,9.48
2022-11-11T17:45:48.095Z,9.40
2022-11-11T17:48:14.401Z,9.36
2022-11-11T17:50:40.851Z,9.28
2022-11-11T17:53:09.952Z,9.27
2022-11-11T17:55:40.096Z,9.21
2022-11-11T17:58:06.445Z,9.16
2022-11-11T18:00:32.910Z,9.09
2022-11-11T18:02:59.233Z,9.03
2022-11-11T18:05:25.597Z,8.96
2022-11-11T18:07:51.926Z,8.93
2022-11-11T18:10:18.561Z,8.85
2022-11-11T18:12:45.006Z,8.76
2022-11-11T18:15:13.264Z,8.73
2022-11-11T18:17:39.702Z,8.75
2022-11-11T18:20:06.636Z,8.77
2022-11-11T18:22:33.103Z,8.76
2022-11-11T18:24:59.433Z,8.71
2022-11-11T18:27:25.818Z,8.73
2022-11-11T18:29:52.149Z,8.69
2022-11-11T18:32:18.524Z,8.60
2022-11-11T18:34:44.832Z,8.54
2022-11-11T18:37:11.168Z,8.50
2022-11-11T18:39:37.525Z,8.41
2022-11-11T18:42:04.030Z,8.35
2022-11-11T18:44:30.339Z,8.29
2022-11-11T18:46:56.702Z,8.28
2022-11-11T18:49:23.030Z,8.25
2022-11-11T18:51:50.561Z,8.27
2022-11-11T18:54:16.932Z,8.27
2022-11-11T18:56:43.252Z,8.28
2022-11-11T18:59:09.598Z,8.29
2022-11-11T19:01:39.305Z,8.30
2022-11-11T19:04:08.134Z,8.28
2022-11-11T19:06:37.336Z,8.26
2022-11-11T19:09:09.245Z,8.27
2022-11-11T19:11:41.983Z,8.20
2022-11-11T19:14:09.856Z,8.19
2022-11-11T19:16:36.315Z,8.13
2022-11-11T19:19:03.713Z,8.11
2022-11-11T19:21:32.581Z,8.05
2022-11-11T19:23:59.841Z,7.98
2022-11-11T19:26:28.545Z,7.94
2022-11-11T19:28:55.008Z,7.92
2022-11-11T19:31:23.953Z,7.90
2022-11-11T19:33:54.293Z,7.86
2022-11-11T19:36:27.933Z,7.87
2022-11-11T19:38:56.985Z,7.83
2022-11-11T19:41:25.910Z,7.82
2022-11-11T19:43:58.843Z,7.77
2022-11-11T19:46:27.861Z,7.81
2022-11-11T19:48:55.825Z,7.79
2022-11-11T19:51:23.841Z,7.81
2022-11-11T19:53:53.692Z,7.79
2022-11-11T19:56:24.728Z,7.80
2022-11-11T19:58:51.301Z,7.76
2022-11-11T20:01:23.771Z,7.80
2022-11-11T20:03:51.407Z,7.73
2022-11-11T20:06:28.001Z,7.75
2022-11-11T20:08:56.151Z,7.69
2022-11-11T20:11:22.756Z,7.68
2022-11-11T20:13:50.008Z,7.66
2022-11-11T20:16:17.135Z,7.65
2022-11-11T20:18:43.469Z,7.52
2022-11-11T20:21:10.730Z,7.49
2022-11-11T20:23:38.874Z,7.44
2022-11-11T20:26:14.093Z,7.41
2022-11-11T20:28:41.564Z,7.41
2022-11-11T20:31:10.002Z,7.40
2022-11-11T20:33:36.394Z,7.32
2022-11-11T20:36:04.254Z,7.38
2022-11-11T20:38:31.454Z,7.39
2022-11-11T20:41:03.989Z,7.40
2022-11-11T20:43:32.139Z,7.36
2022-11-11T20:46:02.763Z,7.35
2022-11-11T20:48:29.362Z,7.27
2022-11-11T20:51:10.151Z,7.28
2022-11-11T20:53:36.912Z,7.26
2022-11-11T20:56:06.117Z,7.27
2022-11-11T20:58:33.267Z,7.26
2022-11-11T21:01:13.989Z,7.27
2022-11-11T21:03:40.813Z,7.27
2022-11-11T21:06:12.893Z,7.27
2022-11-11T21:08:40.851Z,7.26
2022-11-11T21:11:09.082Z,7.29
2022-11-11T21:13:36.508Z,7.25
2022-11-11T21:16:11.453Z,7.26
2022-11-11T21:18:40.575Z,7.20
2022-11-11T21:21:08.000Z,7.23
2022-11-11T21:23:34.845Z,7.20
2022-11-11T21:26:09.707Z,7.21
2022-11-11T21:28:37.560Z,7.17
2022-11-11T21:31:06.496Z,7.13
2022-11-11T21:33:33.148Z,7.09
2022-11-11T21:36:07.947Z,7.06
2022-11-11T21:38:38.579Z,7.00
2022-11-11T21:41:07.879Z,6.99
2022-11-11T21:43:38.280Z,6.95
2022-11-11T21:46:06.811Z,6.99
2022-11-11T21:48:34.146Z,6.95
2022-11-11T21:51:06.648Z,6.98
2022-11-11T21:53:34.018Z,6.87
2022-11-11T21:56:02.301Z,6.83
2022-11-11T21:58:28.947Z,6.77
2022-11-11T22:00:56.080Z,6.78
2022-11-11T22:03:22.580Z,6.75
2022-11-11T22:05:48.919Z,6.68
2022-11-11T22:08:15.327Z,6.68
2022-11-11T22:10:41.664Z,6.67
2022-11-11T22:13:08.127Z,6.64
2022-11-11T22:15:34.475Z,6.62
2022-11-11T22:18:00.807Z,6.60
2022-11-11T22:20:27.132Z,6.55
2022-11-11T22:22:53.456Z,6.53
2022-11-11T22:25:19.786Z,6.57
2022-11-11T22:27:46.123Z,6.61
2022-11-11T22:30:12.785Z,6.62
2022-11-11T22:32:39.615Z,6.56
2022-11-11T22:35:06.141Z,6.57
2022-11-11T22:37:32.445Z,6.56
2022-11-11T22:39:58.744Z,6.53
2022-11-11T22:42:25.281Z,6.51
2022-11-11T22:44:51.603Z,6.51
2022-11-11T22:47:17.924Z,6.46
2022-11-11T22:49:44.277Z,6.45
2022-11-11T22:52:10.591Z,6.40
2022-11-11T22:54:37.021Z,6.38
2022-11-11T22:57:03.410Z,6.36
2022-11-11T22:59:30.001Z,6.33
2022-11-11T23:01:56.386Z,6.34
2022-11-11T23:04:22.782Z,6.33
2022-11-11T23:06:49.163Z,6.33
2022-11-11T23:09:15.506Z,6.29
2022-11-11T23:11:42.168Z,6.29
2022-11-11T23:14:13.549Z,6.37
2022-11-11T23:16:40.050Z,6.36
2022-11-11T23:19:08.141Z,6.30
2022-11-11T23:21:35.025Z,6.32
2022-11-11T23:24:01.610Z,6.31
2022-11-11T23:26:31.726Z,6.31
2022-11-11T23:28:58.625Z,6.26
2022-11-11T23:31:28.328Z,6.21
2022-11-11T23:33:56.503Z,6.18
2022-11-11T23:36:25.651Z,6.12
2022-11-11T23:38:52.703Z,6.05
2022-11-11T23:41:19.547Z,6.05
2022-11-11T23:43:46.515Z,6.02
2022-11-11T23:46:12.934Z,5.95
2022-11-11T23:48:39.543Z,5.99
2022-11-11T23:51:06.046Z,5.99
2022-11-11T23:53:32.610Z,5.99
2022-11-11T23:55:59.040Z,5.97
2022-11-11T23:58:26.561Z,5.98
